Time;durP1;ratioP1;P1;durP2;ratioP2;P2;SDS_P1;SDS_P2;PMS_P1;PMS_P2;Temp;Humidity;BMP_temperature;BMP_pressure;BME280_temperature;BME280_humidity;BME280_pressure;Samples;Min_cycle;Max_cycle;Signal;HPM_P1;HPM_P2
2022/01/04 00:01:30;;;;;;;23.20;12.18;;;;;;;7.93;100.00;99377.25;5074344;28;20056;-50
2022/01/04 00:03:59;;;;;;;21.45;11.55;;;;;;;7.86;100.00;99378.63;5074221;28;20520;-52
2022/01/04 00:06:27;;;;;;;24.98;12.68;;;;;;;7.84;100.00;99372.63;5074113;28;20060;-50
2022/01/04 00:09:00;;;;;;;16.55;9.32;;;;;;;7.76;100.00;99352.84;5074739;28;20488;-49
2022/01/04 00:11:44;;;;;;;28.67;16.48;;;;;;;7.77;100.00;99361.63;5074181;28;20500;-49
2022/01/04 00:14:12;;;;;;;17.92;10.50;;;;;;;7.77;100.00;99351.91;5075011;28;20409;-50
2022/01/04 00:16:42;;;;;;;19.13;10.38;;;;;;;7.71;100.00;99339.13;5074352;28;20072;-52
2022/01/04 00:19:11;;;;;;;15.27;9.90;;;;;;;7.69;100.00;99345.47;5075263;28;20378;-50
2022/01/04 00:21:42;;;;;;;14.57;9.20;;;;;;;7.71;100.00;99338.28;5074344;28;20057;-51
2022/01/04 00:24:10;;;;;;;13.68;8.20;;;;;;;7.74;100.00;99341.56;5074929;28;20056;-51
2022/01/04 00:26:38;;;;;;;15.43;9.05;;;;;;;7.73;100.00;99329.34;5074377;28;20083;-50
2022/01/04 00:29:06;;;;;;;12.30;8.18;;;;;;;7.69;100.00;99327.84;5074287;28;20056;-52
2022/01/04 00:31:35;;;;;;;15.00;9.25;;;;;;;7.75;100.00;99322.16;5073983;28;20057;-50
2022/01/04 00:34:04;;;;;;;18.58;10.65;;;;;;;7.72;100.00;99329.44;5074815;28;20049;-52
2022/01/04 00:36:33;;;;;;;17.60;9.77;;;;;;;7.72;100.00;99326.81;5074454;28;20056;-51
2022/01/04 00:39:01;;;;;;;15.18;8.98;;;;;;;7.74;100.00;99327.53;5074995;28;20082;-52
2022/01/04 00:41:29;;;;;;;14.30;8.95;;;;;;;7.72;100.00;99332.91;5074116;28;20065;-52
2022/01/04 00:43:57;;;;;;;14.90;9.65;;;;;;;7.73;100.00;99324.06;5073607;28;20528;-51
2022/01/04 00:46:26;;;;;;;16.77;9.45;;;;;;;7.70;100.00;99334.81;5074059;28;20057;-51
2022/01/04 00:49:12;;;;;;;14.80;8.77;;;;;;;7.70;100.00;99323.41;5073732;28;20578;-49
2022/01/04 00:51:44;;;;;;;16.20;9.00;;;;;;;7.77;100.00;99325.53;5074672;28;20061;-52
2022/01/04 00:54:13;;;;;;;16.52;8.52;;;;;;;7.72;100.00;99317.06;5073472;28;20053;-49
2022/01/04 00:56:42;;;;;;;15.05;8.15;;;;;;;7.69;100.00;99316.44;5074120;28;20053;-50
2022/01/04 00:59:10;;;;;;;16.92;8.50;;;;;;;7.67;100.00;99315.72;5073978;28;20053;-50
2022/01/04 01:01:39;;;;;;;14.48;8.05;;;;;;;7.66;100.00;99316.66;5073961;28;20053;-50
2022/01/04 01:04:09;;;;;;;10.65;6.88;;;;;;;7.71;100.00;99309.25;5074825;28;20114;-50
2022/01/04 01:06:37;;;;;;;13.85;7.00;;;;;;;7.68;100.00;99307.66;5073560;28;20130;-52
2022/01/04 01:09:07;;;;;;;11.57;7.03;;;;;;;7.60;100.00;99302.09;5078230;28;20065;-50
2022/01/04 01:11:35;;;;;;;11.43;6.93;;;;;;;7.67;100.00;99299.88;5078030;28;20078;-51
2022/01/04 01:14:03;;;;;;;17.85;6.95;;;;;;;7.63;100.00;99301.84;5077053;28;20516;-51
2022/01/04 01:16:32;;;;;;;10.02;6.13;;;;;;;7.67;100.00;99303.34;5077581;28;20389;-49
2022/01/04 01:19:00;;;;;;;16.88;6.97;;;;;;;7.60;100.00;99296.81;5077493;28;20060;-52
2022/01/04 01:21:28;;;;;;;11.65;6.15;;;;;;;7.60;100.00;99292.38;5077459;28;20064;-51
2022/01/04 01:23:57;;;;;;;8.70;5.65;;;;;;;7.69;100.00;99293.53;5078029;28;20052;-50
2022/01/04 01:26:26;;;;;;;12.68;6.15;;;;;;;7.62;100.00;99281.72;5077088;28;20524;-50
2022/01/04 01:28:56;;;;;;;11.43;5.40;;;;;;;7.57;100.00;99279.38;5076947;28;20065;-51
2022/01/04 01:31:24;;;;;;;10.77;4.47;;;;;;;7.63;100.00;99275.47;5077240;28;20082;-50
2022/01/04 01:33:53;;;;;;;10.25;4.63;;;;;;;7.63;100.00;99268.41;5077546;28;20102;-49
2022/01/04 01:36:21;;;;;;;9.68;4.70;;;;;;;7.65;100.00;99270.09;5077457;28;20064;-50
2022/01/04 01:38:49;;;;;;;8.15;3.75;;;;;;;7.62;100.00;99261.44;5076841;28;20401;-52
2022/01/04 01:41:17;;;;;;;7.45;3.85;;;;;;;7.56;100.00;99256.56;5076823;28;20431;-50
2022/01/04 01:43:47;;;;;;;10.23;4.88;;;;;;;7.57;100.00;99254.81;5077270;28;20064;-49
2022/01/04 01:46:15;;;;;;;11.80;3.92;;;;;;;7.63;100.00;99259.63;5077286;28;20067;-50
2022/01/04 01:48:44;;;;;;;8.98;4.25;;;;;;;7.58;100.00;99256.47;5076584;28;20423;-50
2022/01/04 01:51:16;;;;;;;8.27;3.85;;;;;;;7.54;100.00;99255.00;5076910;28;20052;-50
2022/01/04 01:53:44;;;;;;;8.15;3.72;;;;;;;7.58;100.00;99251.19;5077146;28;20052;-51
2022/01/04 01:56:12;;;;;;;5.45;3.15;;;;;;;7.53;100.00;99248.03;5076552;28;20053;-51
2022/01/04 01:58:41;;;;;;;9.43;3.90;;;;;;;7.53;100.00;99248.03;5077632;28;20087;-51
2022/01/04 02:01:11;;;;;;;12.23;3.30;;;;;;;7.53;100.00;99254.16;5076972;28;20060;-51
2022/01/04 02:03:40;;;;;;;9.93;3.77;;;;;;;7.48;100.00;99250.16;5076514;28;20079;-52
2022/01/04 02:06:09;;;;;;;11.63;3.45;;;;;;;7.41;100.00;99250.59;5076640;28;20500;-50
2022/01/04 02:08:37;;;;;;;6.07;3.33;;;;;;;7.39;100.00;99252.47;5077195;28;20130;-51
2022/01/04 02:11:06;;;;;;;10.55;3.67;;;;;;;7.41;100.00;99266.41;5076539;28;20063;-52
2022/01/04 02:13:35;;;;;;;8.77;4.30;;;;;;;7.42;100.00;99268.09;5076266;28;20059;-50
2022/01/04 02:16:03;;;;;;;5.85;3.80;;;;;;;7.41;100.00;99271.69;5077043;28;20056;-50
2022/01/04 02:18:33;;;;;;;9.38;3.63;;;;;;;7.42;100.00;99272.53;5075663;28;20111;-50
2022/01/04 02:21:02;;;;;;;8.38;3.47;;;;;;;7.40;100.00;99270.00;5076268;28;20060;-50
2022/01/04 02:23:33;;;;;;;9.45;3.83;;;;;;;7.48;100.00;99265.97;5075797;28;20057;-52
2022/01/04 02:26:03;;;;;;;6.85;2.85;;;;;;;7.49;100.00;99267.69;5077145;28;20061;-51
2022/01/04 02:28:33;;;;;;;11.20;3.45;;;;;;;7.51;100.00;99273.69;5075920;28;20531;-52
2022/01/04 02:31:01;;;;;;;11.55;3.03;;;;;;;7.46;100.00;99281.06;5076142;28;20060;-50
2022/01/04 02:33:29;;;;;;;8.95;3.40;;;;;;;7.47;100.00;99280.13;5076941;28;20052;-51
2022/01/04 02:35:57;;;;;;;8.45;3.30;;;;;;;7.43;100.00;99280.34;5076065;28;20085;-50
2022/01/04 02:38:27;;;;;;;8.88;3.38;;;;;;;7.53;100.00;99279.69;5076256;28;20060;-50
2022/01/04 02:40:55;;;;;;;8.70;3.50;;;;;;;7.51;100.00;99277.16;5076212;28;20063;-52
2022/01/04 02:43:23;;;;;;;14.32;3.90;;;;;;;7.54;100.00;99266.41;5075931;28;20064;-50
2022/01/04 02:45:52;;;;;;;8.85;3.10;;;;;;;7.51;100.00;99249.94;5075539;28;20078;-52
2022/01/04 02:48:20;;;;;;;9.48;2.55;;;;;;;7.52;100.00;99246.38;5075398;28;20060;-51
2022/01/04 02:50:48;;;;;;;10.77;2.65;;;;;;;7.48;100.00;99234.31;5075802;28;20057;-50
2022/01/04 02:53:16;;;;;;;13.57;2.90;;;;;;;7.40;100.00;99229.59;5075763;28;20053;-49
2022/01/04 02:55:46;;;;;;;9.38;3.38;;;;;;;7.31;100.00;99233.69;5075109;28;20082;-51
2022/01/04 02:58:15;;;;;;;10.25;3.67;;;;;;;7.31;100.00;99243.41;5075317;28;20068;-51
2022/01/04 03:00:45;;;;;;;11.32;3.70;;;;;;;7.34;100.00;99243.19;5075581;28;20412;-52
2022/01/04 03:03:14;;;;;;;10.88;2.80;;;;;;;7.34;100.00;99244.03;5076452;28;20446;-52
2022/01/04 03:05:42;;;;;;;9.40;3.30;;;;;;;7.33;100.00;99242.34;5076359;28;20403;-49
2022/01/04 03:08:10;;;;;;;12.75;4.22;;;;;;;7.35;100.00;99235.19;5075085;28;20062;-49
2022/01/04 03:10:39;;;;;;;13.73;3.80;;;;;;;7.39;100.00;99236.63;5075384;28;20508;-51
2022/01/04 03:13:09;;;;;;;11.38;3.22;;;;;;;7.41;100.00;99234.75;5076155;28;20425;-51
2022/01/04 03:15:38;;;;;;;9.38;3.90;;;;;;;7.49;100.00;99241.28;5075365;28;20059;-51
2022/01/04 03:18:06;;;;;;;14.13;4.07;;;;;;;7.47;100.00;99235.28;5075233;28;20053;-51
2022/01/04 03:20:34;;;;;;;10.25;3.60;;;;;;;7.48;100.00;99235.19;5075479;28;20072;-50
2022/01/04 03:23:03;;;;;;;10.48;3.97;;;;;;;7.49;100.00;99243.94;5075355;28;20381;-51
2022/01/04 03:25:31;;;;;;;16.02;4.97;;;;;;;7.52;100.00;99251.63;5074895;28;20052;-50
2022/01/04 03:27:59;;;;;;;12.05;3.60;;;;;;;7.49;100.00;99251.84;5075557;28;20052;-51
2022/01/04 03:30:29;;;;;;;16.08;4.15;;;;;;;7.50;100.00;99249.09;5073938;28;20052;-52
2022/01/04 03:32:57;;;;;;;12.75;4.75;;;;;;;7.52;100.00;99262.19;5074958;28;20056;-52
2022/01/04 03:35:25;;;;;;;11.88;4.05;;;;;;;7.51;100.00;99260.50;5074644;28;20484;-52
2022/01/04 03:37:54;;;;;;;11.02;4.05;;;;;;;7.49;100.00;99263.22;5074918;28;20052;-52
2022/01/04 03:40:22;;;;;;;24.00;5.82;;;;;;;7.51;100.00;99268.41;5074853;28;20068;-50
2022/01/04 03:42:50;;;;;;;12.90;5.35;;;;;;;7.50;100.00;99261.44;5074503;28;20072;-51
2022/01/04 03:45:18;;;;;;;15.68;4.38;;;;;;;7.52;100.00;99263.03;5074520;28;20056;-50
2022/01/04 03:47:48;;;;;;;14.38;4.05;;;;;;;7.52;100.00;99259.56;5074408;28;20091;-52
2022/01/04 03:50:16;;;;;;;14.10;5.20;;;;;;;7.51;100.00;99252.56;5074627;28;20063;-49
2022/01/04 03:52:44;;;;;;;15.43;4.18;;;;;;;7.53;100.00;99253.31;5074685;28;20056;-51
2022/01/04 03:55:13;;;;;;;11.18;4.95;;;;;;;7.51;100.00;99250.78;5074363;28;20539;-49
2022/01/04 03:57:41;;;;;;;13.15;5.00;;;;;;;7.50;100.00;99251.75;5074331;28;20444;-51
2022/01/04 04:00:10;;;;;;;15.13;4.47;;;;;;;7.52;100.00;99256.91;5074618;28;20415;-51
2022/01/04 04:02:38;;;;;;;8.15;3.55;;;;;;;7.52;100.00;99246.38;5074240;28;20052;-51
2022/01/04 04:05:09;;;;;;;18.35;3.65;;;;;;;7.49;100.00;99233.38;5073982;28;20056;-50
2022/01/04 04:07:37;;;;;;;12.43;3.55;;;;;;;7.37;100.00;99238.53;5075237;28;20060;-52
2022/01/04 04:10:06;;;;;;;15.80;3.20;;;;;;;7.39;100.00;99226.09;5073843;28;20097;-51
2022/01/04 04:12:34;;;;;;;11.48;3.40;;;;;;;7.32;100.00;99213.44;5074554;28;20068;-52
2022/01/04 04:15:05;;;;;;;16.42;3.90;;;;;;;7.29;100.00;99214.47;5073838;28;20424;-50
2022/01/04 04:17:33;;;;;;;11.38;2.90;;;;;;;7.27;100.00;99208.47;5074952;28;20071;-49
2022/01/04 04:20:01;;;;;;;14.55;3.15;;;;;;;7.22;100.00;99207.94;5074949;28;20063;-51
2022/01/04 04:22:31;;;;;;;17.67;3.25;;;;;;;7.19;100.00;99208.16;5074361;28;20064;-52
2022/01/04 04:24:59;;;;;;;18.80;2.85;;;;;;;7.13;100.00;99198.88;5073777;28;20053;-50
2022/01/04 04:27:28;;;;;;;16.95;3.20;;;;;;;7.03;100.00;99198.66;5074024;28;20056;-51
2022/01/04 04:29:56;;;;;;;12.10;2.80;;;;;;;6.99;100.00;99201.59;5075170;28;20056;-50
2022/01/04 04:32:24;;;;;;;16.30;3.05;;;;;;;7.07;100.00;99201.94;5074541;28;20397;-50
2022/01/04 04:34:52;;;;;;;18.77;2.72;;;;;;;6.97;100.00;99201.72;5074000;28;20063;-51
2022/01/04 04:37:20;;;;;;;14.82;2.80;;;;;;;6.90;100.00;99192.53;5074179;28;20052;-49
2022/01/04 04:39:50;;;;;;;19.60;3.42;;;;;;;6.84;100.00;99207.00;5073838;28;20060;-51
2022/01/04 04:42:18;;;;;;;21.95;3.22;;;;;;;6.89;100.00;99201.38;5076614;28;20424;-52
2022/01/04 04:44:47;;;;;;;16.98;2.80;;;;;;;7.03;100.00;99188.13;5078812;28;20052;-51
2022/01/04 04:47:15;;;;;;;11.73;2.78;;;;;;;7.06;100.00;99187.91;5078360;28;20075;-52
2022/01/04 04:49:43;;;;;;;15.05;2.88;;;;;;;7.12;100.00;99185.81;5077724;28;20060;-52
2022/01/04 04:52:11;;;;;;;16.52;2.72;;;;;;;7.19;100.00;99187.06;5078072;28;20064;-50
2022/01/04 04:54:39;;;;;;;16.55;2.42;;;;;;;7.21;100.00;99179.88;5078458;28;20063;-52
2022/01/04 04:57:09;;;;;;;13.45;2.63;;;;;;;7.19;100.00;99181.78;5077692;28;20053;-50
2022/01/04 04:59:37;;;;;;;15.57;2.55;;;;;;;7.20;100.00;99173.75;5078754;28;20056;-49
2022/01/04 05:02:07;;;;;;;25.02;3.33;;;;;;;7.19;100.00;99173.88;5077560;28;20048;-50
2022/01/04 05:04:36;;;;;;;11.95;3.17;;;;;;;7.19;100.00;99172.06;5077574;28;20052;-51
2022/01/04 05:07:05;;;;;;;16.67;2.60;;;;;;;7.23;100.00;99168.28;5077748;28;20059;-52
2022/01/04 05:09:33;;;;;;;11.55;2.45;;;;;;;7.27;100.00;99163.63;5077972;28;20714;-51
2022/01/04 05:12:04;;;;;;;16.98;3.10;;;;;;;7.25;100.00;99165.53;5077637;28;20057;-50
2022/01/04 05:14:34;;;;;;;17.80;2.75;;;;;;;7.27;100.00;99161.00;5078120;28;20067;-52
2022/01/04 05:17:02;;;;;;;17.13;2.72;;;;;;;7.26;100.00;99167.22;5077606;28;20113;-51
2022/01/04 05:19:30;;;;;;;17.25;2.72;;;;;;;7.32;100.00;99166.78;5077529;28;20500;-52
2022/01/04 05:21:59;;;;;;;15.63;3.60;;;;;;;7.32;100.00;99177.34;5077144;28;20052;-50
2022/01/04 05:24:27;;;;;;;17.20;2.33;;;;;;;7.28;100.00;99186.44;5078321;28;20404;-51
2022/01/04 05:26:55;;;;;;;25.10;2.50;;;;;;;7.30;100.00;99189.81;5077070;28;20056;-50
2022/01/04 05:29:23;;;;;;;17.38;2.67;;;;;;;7.38;100.00;99189.25;5076978;28;20079;-52
2022/01/04 05:31:53;;;;;;;21.15;2.75;;;;;;;7.37;100.00;99201.59;5077264;28;20512;-52
2022/01/04 05:34:21;;;;;;;21.92;2.70;;;;;;;7.40;100.00;99209.31;5076710;28;20053;-51
2022/01/04 05:36:49;;;;;;;16.05;2.08;;;;;;;7.36;100.00;99213.13;5076897;28;20057;-51
2022/01/04 05:39:18;;;;;;;22.38;3.10;;;;;;;7.44;100.00;99212.56;5077158;28;20055;-52
2022/01/04 05:41:46;;;;;;;18.88;2.47;;;;;;;7.53;100.00;99237.47;5077932;28;20057;-51
2022/01/04 05:44:14;;;;;;;22.80;2.13;;;;;;;7.52;100.00;99235.81;5077633;28;20057;-52
2022/01/04 05:46:42;;;;;;;10.88;2.30;;;;;;;7.47;100.00;99227.38;5078380;28;20092;-52
2022/01/04 05:49:12;;;;;;;17.17;2.45;;;;;;;7.44;100.00;99231.88;5076890;28;20057;-49
2022/01/04 05:51:41;;;;;;;39.95;4.90;;;;;;;7.40;100.00;99233.06;5076994;28;20052;-52
2022/01/04 05:54:09;;;;;;;18.17;2.00;;;;;;;7.46;100.00;99244.13;5076639;28;20053;-52
2022/01/04 05:56:37;;;;;;;19.23;3.38;;;;;;;7.49;100.00;99265.88;5076522;28;20056;-52
2022/01/04 05:59:06;;;;;;;13.55;3.05;;;;;;;7.41;100.00;99265.56;5077090;28;20083;-52
2022/01/04 06:01:34;;;;;;;16.42;2.47;;;;;;;7.39;100.00;99268.28;5077286;28;20071;-52
2022/01/04 06:04:02;;;;;;;13.10;2.80;;;;;;;7.38;100.00;99261.34;5076449;28;20102;-52
2022/01/04 06:06:32;;;;;;;10.30;2.53;;;;;;;7.38;100.00;99266.63;5076319;28;20052;-52
2022/01/04 06:09:00;;;;;;;15.10;2.45;;;;;;;7.38;100.00;99261.34;5076966;28;20071;-51
2022/01/04 06:11:45;;;;;;;17.20;2.55;;;;;;;7.31;100.00;99260.06;5076482;28;20400;-52
2022/01/04 06:16:58;;;;;;;18.75;2.30;;;;;;;7.31;100.00;99252.16;5076772;28;20424;-49
2022/01/04 06:19:27;;;;;;;19.42;4.25;;;;;;;7.29;100.00;99243.50;5076087;28;20052;-52
2022/01/04 06:21:57;;;;;;;19.10;2.28;;;;;;;7.39;100.00;99246.34;5075990;28;20131;-52
2022/01/04 06:24:25;;;;;;;12.20;2.42;;;;;;;7.30;100.00;99247.84;5075779;28;20490;-49
2022/01/04 06:26:54;;;;;;;14.95;2.65;;;;;;;7.37;100.00;99254.38;5075977;28;20066;-50
2022/01/04 06:29:23;;;;;;;14.55;2.55;;;;;;;7.27;100.00;99247.22;5075946;28;20052;-50
2022/01/04 06:31:51;;;;;;;14.85;2.05;;;;;;;7.23;100.00;99255.31;5075738;28;20056;-49
2022/01/04 06:34:19;;;;;;;10.45;1.60;;;;;;;7.33;100.00;99258.19;5076426;28;20057;-51
2022/01/04 06:36:47;;;;;;;16.05;2.33;;;;;;;7.30;100.00;99261.03;5075860;28;20404;-51
2022/01/04 06:39:17;;;;;;;23.98;2.55;;;;;;;7.34;100.00;99253.75;5076050;28;20053;-52
2022/01/04 06:41:45;;;;;;;23.33;2.30;;;;;;;7.34;100.00;99254.56;5075951;28;20412;-50
2022/01/04 06:44:14;;;;;;;12.88;3.08;;;;;;;7.30;100.00;99262.84;5076505;28;20059;-51
2022/01/04 06:46:45;;;;;;;15.82;1.83;;;;;;;7.30;100.00;99268.94;5076246;28;20069;-50
2022/01/04 06:49:14;;;;;;;24.70;3.30;;;;;;;7.18;100.00;99259.22;5075130;28;20585;-49
2022/01/04 06:51:43;;;;;;;20.27;2.50;;;;;;;7.11;100.00;99264.09;5075390;28;20056;-51
2022/01/04 06:54:12;;;;;;;12.75;1.70;;;;;;;7.17;100.00;99252.25;5075053;28;20052;-51
2022/01/04 06:56:42;;;;;;;17.77;2.05;;;;;;;7.22;100.00;99252.78;5075399;28;20082;-52
2022/01/04 06:59:11;;;;;;;18.15;1.95;;;;;;;7.27;100.00;99248.03;5075353;28;20056;-50
2022/01/04 07:01:39;;;;;;;16.60;2.05;;;;;;;7.33;100.00;99255.53;5075613;28;20412;-52
2022/01/04 07:04:08;;;;;;;16.63;1.95;;;;;;;7.32;100.00;99259.13;5076072;28;20064;-52
2022/01/04 07:06:36;;;;;;;24.25;3.08;;;;;;;7.39;100.00;99249.00;5075712;28;20052;-52
2022/01/04 07:09:05;;;;;;;19.33;4.32;;;;;;;7.28;100.00;99244.47;5075738;28;20068;-52
2022/01/04 07:11:34;;;;;;;12.77;2.38;;;;;;;7.28;100.00;99228.63;5075284;28;20484;-50
2022/01/04 07:14:04;;;;;;;13.95;2.60;;;;;;;7.34;100.00;99249.31;5074786;28;20053;-52
2022/01/04 07:16:32;;;;;;;20.08;2.83;;;;;;;7.27;100.00;99248.03;5075597;28;20053;-50
2022/01/04 07:19:00;;;;;;;14.30;2.30;;;;;;;7.25;100.00;99242.03;5075501;28;20053;-50
2022/01/04 07:21:29;;;;;;;18.52;3.22;;;;;;;7.24;100.00;99245.59;5074875;28;20492;-52
2022/01/04 07:24:01;;;;;;;17.55;1.40;;;;;;;7.21;100.00;99243.19;5075174;28;20056;-52
2022/01/04 07:26:29;;;;;;;22.50;2.70;;;;;;;7.21;100.00;99248.44;5074710;28;20068;-51
2022/01/04 07:28:57;;;;;;;19.63;3.38;;;;;;;7.21;100.00;99237.91;5075011;28;20071;-50
2022/01/04 07:31:27;;;;;;;16.60;1.90;;;;;;;7.20;100.00;99236.22;5074945;28;20060;-50
2022/01/04 07:33:56;;;;;;;11.27;1.85;;;;;;;7.21;100.00;99235.25;5074680;28;20056;-51
2022/01/04 07:36:24;;;;;;;30.20;3.65;;;;;;;7.22;100.00;99223.78;5074906;28;20064;-50
2022/01/04 07:38:52;;;;;;;21.10;2.00;;;;;;;7.18;100.00;99228.41;5074579;28;20052;-52
2022/01/04 07:41:20;;;;;;;16.63;2.05;;;;;;;7.16;100.00;99219.78;5074812;28;20508;-52
2022/01/04 07:43:49;;;;;;;20.98;2.58;;;;;;;7.05;100.00;99211.75;5074966;28;20056;-52
2022/01/04 07:46:18;;;;;;;21.60;2.70;;;;;;;7.02;100.00;99207.50;5074417;28;20064;-52
2022/01/04 07:48:50;;;;;;;18.48;2.75;;;;;;;6.98;100.00;99203.41;5074739;28;20059;-50
2022/01/04 07:51:19;;;;;;;20.40;2.55;;;;;;;7.00;100.00;99206.78;5074269;28;20543;-52
2022/01/04 07:53:47;;;;;;;18.58;2.30;;;;;;;7.00;100.00;99205.94;5074287;28;20538;-52
2022/01/04 07:56:15;;;;;;;25.38;3.05;;;;;;;6.99;100.00;99199.84;5074648;28;20052;-49
2022/01/04 07:58:43;;;;;;;14.38;2.42;;;;;;;7.05;100.00;99201.19;5074307;28;20071;-49
2022/01/04 08:01:13;;;;;;;18.27;2.40;;;;;;;6.94;100.00;99188.72;5074681;28;20060;-52
2022/01/04 08:03:41;;;;;;;19.92;2.60;;;;;;;7.04;100.00;99189.81;5074010;28;20067;-51
2022/01/04 08:06:11;;;;;;;18.27;2.45;;;;;;;7.04;100.00;99194.22;5075475;28;20056;-51
2022/01/04 08:08:39;;;;;;;18.23;2.53;;;;;;;7.04;100.00;99200.38;5074735;28;20065;-50
2022/01/04 08:11:08;;;;;;;11.85;2.35;;;;;;;7.12;100.00;99202.47;5074823;28;20079;-49
2022/01/04 08:13:36;;;;;;;18.25;2.63;;;;;;;7.16;100.00;99201.31;5074373;28;20074;-52
2022/01/04 08:16:05;;;;;;;17.23;2.50;;;;;;;7.20;100.00;99201.94;5073623;28;20064;-50
2022/01/04 08:18:33;;;;;;;19.35;2.40;;;;;;;7.30;100.00;99205.63;5074179;28;20551;-52
2022/01/04 08:21:23;;;;;;;14.82;1.70;;;;;;;7.40;100.00;99211.13;5074660;28;20129;-51
2022/01/04 08:23:51;;;;;;;15.93;2.35;;;;;;;7.47;100.00;99236.13;5074895;28;20091;-50
2022/01/04 08:26:19;;;;;;;26.98;2.35;;;;;;;7.46;100.00;99241.50;5074221;28;20052;-51
2022/01/04 08:28:48;;;;;;;16.88;2.47;;;;;;;7.42;100.00;99236.44;5074298;28;20053;-51
2022/01/04 08:31:16;;;;;;;19.00;2.38;;;;;;;7.40;100.00;99243.63;5073875;28;20065;-52
2022/01/04 08:33:52;;;;;;;12.00;2.40;;;;;;;7.38;100.00;99245.53;5074894;28;20412;-52
2022/01/04 08:36:20;;;;;;;18.35;2.33;;;;;;;7.38;100.00;99258.72;5074194;28;20068;-51
2022/01/04 08:38:49;;;;;;;15.63;2.55;;;;;;;7.37;100.00;99264.94;5074439;28;20056;-51
2022/01/04 08:41:18;;;;;;;19.38;1.90;;;;;;;7.41;100.00;99276.97;5074762;28;20135;-51
2022/01/04 08:43:47;;;;;;;15.32;2.03;;;;;;;7.43;100.00;99277.72;5073575;28;20053;-50
2022/01/04 08:46:15;;;;;;;17.42;2.20;;;;;;;7.38;100.00;99295.66;5074412;28;20107;-52
2022/01/04 08:48:44;;;;;;;16.45;2.10;;;;;;;7.46;100.00;99315.38;5073790;28;20101;-51
2022/01/04 08:51:12;;;;;;;9.40;2.13;;;;;;;7.43;100.00;99327.84;5074071;28;20056;-52
2022/01/04 08:53:40;;;;;;;9.50;1.48;;;;;;;7.46;100.00;99333.84;5074542;28;20071;-52
2022/01/04 08:56:10;;;;;;;18.92;1.95;;;;;;;7.56;100.00;99332.28;5074572;28;20052;-49
2022/01/04 08:58:38;;;;;;;13.50;1.90;;;;;;;7.56;100.00;99332.28;5073933;28;20057;-52
2022/01/04 09:01:06;;;;;;;15.38;2.75;;;;;;;7.60;100.00;99344.31;5074832;28;20221;-52
2022/01/04 09:03:35;;;;;;;18.10;2.20;;;;;;;7.62;100.00;99342.41;5074414;28;20060;-49
2022/01/04 09:06:03;;;;;;;17.95;2.45;;;;;;;7.60;100.00;99354.88;5073974;28;20057;-52
2022/01/04 09:08:31;;;;;;;11.80;1.85;;;;;;;7.63;100.00;99370.47;5074497;28;20056;-52
2022/01/04 09:11:01;;;;;;;9.43;1.42;;;;;;;7.66;100.00;99380.84;5073881;28;20090;-52
2022/01/04 09:13:35;;;;;;;12.95;1.70;;;;;;;7.64;100.00;99366.91;5073719;28;20056;-52
2022/01/04 09:18:50;;;;;;;10.77;1.40;;;;;;;7.50;100.00;99362.56;5073251;28;20056;-51
2022/01/04 09:21:25;;;;;;;6.95;1.90;;;;;;;7.49;100.00;99360.03;5073263;28;20065;-51
2022/01/04 09:23:54;;;;;;;15.25;1.80;;;;;;;7.42;100.00;99351.69;5073244;28;20056;-51
2022/01/04 09:26:23;;;;;;;11.43;1.40;;;;;;;7.37;100.00;99349.34;5073442;28;20088;-50
2022/01/04 09:28:53;;;;;;;17.80;2.15;;;;;;;7.36;100.00;99366.16;5075476;28;20048;-51
2022/01/04 09:31:22;;;;;;;14.13;1.63;;;;;;;7.37;100.00;99365.19;5076729;28;20052;-51
2022/01/04 09:33:51;;;;;;;16.10;2.50;;;;;;;7.34;100.00;99373.28;5077652;28;20057;-51
2022/01/04 09:36:26;;;;;;;13.95;1.58;;;;;;;7.29;100.00;99371.91;5076745;28;20048;-50
2022/01/04 09:38:54;;;;;;;12.50;1.80;;;;;;;7.30;100.00;99381.53;5076882;28;20057;-52
2022/01/04 09:41:22;;;;;;;11.60;2.20;;;;;;;7.26;100.00;99383.50;5077244;28;20404;-51
2022/01/04 09:43:52;;;;;;;13.52;1.45;;;;;;;7.26;99.67;99380.88;5077727;28;20053;-50
2022/01/04 09:46:21;;;;;;;14.20;1.95;;;;;;;7.26;98.36;99383.50;5077700;28;20056;-49
2022/01/04 09:48:49;;;;;;;9.82;1.90;;;;;;;7.32;95.17;99382.28;5076690;28;20053;-52
2022/01/04 09:51:18;;;;;;;7.25;1.30;;;;;;;7.31;92.53;99376.13;5076579;28;20079;-52
2022/01/04 09:53:46;;;;;;;11.30;1.67;;;;;;;7.44;91.21;99382.28;5076357;28;20053;-52
2022/01/04 09:56:15;;;;;;;7.07;1.70;;;;;;;7.61;90.88;99388.22;5076903;28;20086;-52
2022/01/04 09:58:43;;;;;;;6.65;1.00;;;;;;;7.60;90.90;99391.84;5076807;28;20400;-52
2022/01/04 10:01:21;;;;;;;9.68;2.15;;;;;;;7.67;91.49;99398.38;5077634;28;20088;-52
2022/01/04 10:04:10;;;;;;;9.23;1.35;;;;;;;7.67;91.70;99406.28;5076413;28;20090;-51
2022/01/04 10:06:39;;;;;;;6.82;1.42;;;;;;;7.73;91.38;99403.25;5076698;28;20060;-52
2022/01/04 10:09:11;;;;;;;11.15;2.35;;;;;;;7.61;91.71;99410.16;5076898;28;20099;-50
2022/01/04 10:11:42;;;;;;;6.50;1.40;;;;;;;7.46;92.20;99420.91;5076037;28;20096;-50
2022/01/04 10:14:27;;;;;;;12.43;1.45;;;;;;;7.44;92.45;99415.75;5076819;28;20057;-52
2022/01/04 10:16:58;;;;;;;9.63;1.25;;;;;;;7.36;93.57;99433.88;5076205;28;20052;-51
2022/01/04 10:19:31;;;;;;;10.68;1.65;;;;;;;7.35;94.46;99429.56;5076810;28;20053;-52
2022/01/04 10:22:11;;;;;;;10.18;1.80;;;;;;;7.36;96.39;99440.00;5076383;28;20132;-50
2022/01/04 10:24:39;;;;;;;11.98;2.10;;;;;;;7.39;96.34;99441.59;5076676;28;20404;-51
2022/01/04 10:27:28;;;;;;;11.25;1.80;;;;;;;7.39;94.74;99431.03;5076319;28;20056;-52
2022/01/04 10:30:14;;;;;;;13.65;1.77;;;;;;;7.41;94.63;99422.09;5076032;28;20052;-52
2022/01/04 10:32:49;;;;;;;11.93;1.83;;;;;;;7.77;92.68;99410.00;5076763;28;20150;-52
2022/01/04 10:35:22;;;;;;;10.23;1.58;;;;;;;8.58;89.16;99421.19;5076510;28;20064;-52
2022/01/04 10:37:50;;;;;;;13.27;1.48;;;;;;;9.15;84.86;99425.03;5075598;28;20534;-52
2022/01/04 10:40:19;;;;;;;8.82;1.80;;;;;;;9.22;81.50;99406.88;5075660;28;20056;-52
2022/01/04 10:42:47;;;;;;;8.35;1.33;;;;;;;9.11;80.48;99418.25;5076512;28;20408;-50
2022/01/04 10:45:28;;;;;;;14.13;1.50;;;;;;;9.23;82.79;99406.78;5075411;28;20056;-49
2022/01/04 10:48:10;;;;;;;7.30;1.20;;;;;;;9.63;80.46;99413.53;5075508;28;20096;-50
2022/01/04 10:50:38;;;;;;;;;;;;;;;10.39;76.86;99412.13;5076606;28;20061;-50
2022/01/04 10:53:07;;;;;;;10.73;1.60;;;;;;;11.50;69.57;99412.94;5076587;28;19920;-50
2022/01/04 10:55:36;;;;;;;11.10;1.30;;;;;;;11.46;68.63;99407.00;5075336;28;20063;-51
2022/01/04 10:58:05;;;;;;;6.85;1.20;;;;;;;11.01;70.13;99401.03;5075381;28;20057;-52
2022/01/04 11:00:33;;;;;;;8.63;1.88;;;;;;;11.12;69.84;99415.13;5075655;28;20082;-51
2022/01/04 11:03:03;;;;;;;9.65;1.50;;;;;;;11.03;69.80;99405.25;5076356;28;20059;-49
2022/01/04 11:05:38;;;;;;;11.63;2.33;;;;;;;10.33;72.24;99401.16;5075743;28;20488;-51
2022/01/04 11:08:12;;;;;;;5.43;1.27;;;;;;;9.69;75.99;99406.94;5075805;28;20087;-51
2022/01/04 11:10:43;;;;;;;10.27;1.83;;;;;;;9.32;79.34;99407.91;5075743;28;20057;-51
2022/01/04 11:13:11;;;;;;;9.07;1.77;;;;;;;9.19;81.73;99421.19;5074689;28;20056;-49
2022/01/04 11:15:40;;;;;;;12.13;1.58;;;;;;;8.98;82.77;99428.03;5074797;28;20069;-49
2022/01/04 11:18:10;;;;;;;6.50;1.25;;;;;;;8.88;83.18;99431.34;5076112;28;20405;-52
2022/01/04 11:20:40;;;;;;;9.70;1.60;;;;;;;8.93;84.11;99429.22;5075221;28;20060;-50
2022/01/04 11:23:09;;;;;;;6.40;0.95;;;;;;;8.67;84.84;99424.97;5075541;28;20056;-51
2022/01/04 11:25:38;;;;;;;7.68;1.13;;;;;;;8.43;86.72;99423.09;5074576;28;20059;-49
2022/01/04 11:28:08;;;;;;;9.50;1.45;;;;;;;8.47;88.91;99424.59;5074789;28;20060;-49
2022/01/04 11:30:43;;;;;;;6.55;1.88;;;;;;;8.55;89.38;99427.50;5075392;28;20119;-48
2022/01/04 11:33:20;;;;;;;6.28;1.42;;;;;;;9.49;83.85;99426.00;5075447;28;20483;-52
2022/01/04 11:35:49;;;;;;;5.93;1.15;;;;;;;9.94;81.66;99430.59;5075513;28;20095;-50
2022/01/04 11:38:32;;;;;;;8.90;2.20;;;;;;;10.39;79.61;99406.81;5074938;28;20057;-50
2022/01/04 11:41:00;;;;;;;3.90;1.05;;;;;;;11.49;74.46;99417.38;5074328;28;20056;-49
2022/01/04 11:43:30;;;;;;;5.55;1.17;;;;;;;12.08;70.62;99418.66;5074436;28;20060;-51
2022/01/04 11:45:58;;;;;;;5.18;0.95;;;;;;;12.37;68.02;99417.13;5075226;28;20536;-50